sensor_id;sensor_type;location;lat;lon;timestamp;pressure;altitude;pressure_sealevel;temperature;humidity
13456;BME280;6800;50.940;6.940;2022-08-19T00:03:07;100520.72;;;32.34;35.74
13456;BME280;6800;50.940;6.940;2022-08-19T00:07:07;100523.41;;;32.23;35.24
13456;BME280;6800;50.940;6.940;2022-08-19T00:11:43;100516.38;;;32.33;35.69
13456;BME280;6800;50.940;6.940;2022-08-19T00:15:43;100526.47;;;32.26;35.77
13456;BME280;6800;50.940;6.940;2022-08-19T00:19:47;100517.75;;;32.24;35.78
13456;BME280;6800;50.940;6.940;2022-08-19T00:23:48;100518.34;;;32.15;35.93
13456;BME280;6800;50.940;6.940;2022-08-19T00:27:49;100520.47;;;32.13;36.09
13456;BME280;6800;50.940;6.940;2022-08-19T00:31:51;100524.81;;;32.25;35.67
13456;BME280;6800;50.940;6.940;2022-08-19T00:35:55;100530.34;;;32.19;35.72
13456;BME280;6800;50.940;6.940;2022-08-19T00:39:55;100519.97;;;32.16;35.98
13456;BME280;6800;50.940;6.940;2022-08-19T00:43:58;100519.13;;;32.04;35.96
13456;BME280;6800;50.940;6.940;2022-08-19T00:47:59;100512.69;;;32.16;35.92
13456;BME280;6800;50.940;6.940;2022-08-19T00:52:09;100524.53;;;32.15;35.91
13456;BME280;6800;50.940;6.940;2022-08-19T00:56:13;100520.47;;;32.24;35.61
13456;BME280;6800;50.940;6.940;2022-08-19T01:00:18;100523.09;;;32.01;35.79
13456;BME280;6800;50.940;6.940;2022-08-19T01:04:19;100520.22;;;31.85;36.72
13456;BME280;6800;50.940;6.940;2022-08-19T01:08:19;100526.56;;;31.90;36.04
13456;BME280;6800;50.940;6.940;2022-08-19T01:12:20;100528.84;;;31.75;36.34
13456;BME280;6800;50.940;6.940;2022-08-19T01:16:23;100523.50;;;31.87;36.50
13456;BME280;6800;50.940;6.940;2022-08-19T01:20:25;100516.41;;;31.74;36.77
13456;BME280;6800;50.940;6.940;2022-08-19T01:39:28;100502.31;;;31.72;37.09
13456;BME280;6800;50.940;6.940;2022-08-19T01:43:29;100495.34;;;31.65;37.15
13456;BME280;6800;50.940;6.940;2022-08-19T01:47:29;100496.72;;;31.85;36.59
13456;BME280;6800;50.940;6.940;2022-08-19T01:51:30;100493.03;;;31.68;37.29
13456;BME280;6800;50.940;6.940;2022-08-19T01:55:30;100488.81;;;31.72;36.54
13456;BME280;6800;50.940;6.940;2022-08-19T02:04:02;100495.72;;;31.68;37.21
13456;BME280;6800;50.940;6.940;2022-08-19T02:08:03;100503.53;;;31.58;37.43
13456;BME280;6800;50.940;6.940;2022-08-19T02:12:05;100506.94;;;31.53;37.43
13456;BME280;6800;50.940;6.940;2022-08-19T02:16:07;100510.06;;;31.50;37.71
13456;BME280;6800;50.940;6.940;2022-08-19T02:20:08;100504.34;;;31.58;36.98
13456;BME280;6800;50.940;6.940;2022-08-19T02:24:09;100491.84;;;31.46;37.79
13456;BME280;6800;50.940;6.940;2022-08-19T02:28:10;100500.72;;;31.53;37.22
13456;BME280;6800;50.940;6.940;2022-08-19T02:32:11;100509.25;;;31.50;37.82
13456;BME280;6800;50.940;6.940;2022-08-19T02:36:13;100509.84;;;31.52;37.58
13456;BME280;6800;50.940;6.940;2022-08-19T02:40:14;100510.91;;;31.51;37.43
13456;BME280;6800;50.940;6.940;2022-08-19T02:44:16;100506.19;;;31.76;36.87
13456;BME280;6800;50.940;6.940;2022-08-19T02:48:18;100517.84;;;31.58;37.74
13456;BME280;6800;50.940;6.940;2022-08-19T02:52:19;100524.09;;;31.59;37.74
13456;BME280;6800;50.940;6.940;2022-08-19T02:56:20;100524.41;;;31.51;37.72
13456;BME280;6800;50.940;6.940;2022-08-19T03:18:03;100517.47;;;31.37;37.72
13456;BME280;6800;50.940;6.940;2022-08-19T03:22:04;100517.66;;;31.42;37.77
13456;BME280;6800;50.940;6.940;2022-08-19T03:26:05;100522.63;;;31.45;37.66
13456;BME280;6800;50.940;6.940;2022-08-19T03:40:08;100542.28;;;31.09;38.26
13456;BME280;6800;50.940;6.940;2022-08-19T03:44:09;100543.72;;;31.12;37.80
13456;BME280;6800;50.940;6.940;2022-08-19T03:53:47;100547.47;;;31.11;38.28
13456;BME280;6800;50.940;6.940;2022-08-19T03:57:47;100542.53;;;31.08;38.58
13456;BME280;6800;50.940;6.940;2022-08-19T04:10:08;100548.06;;;31.13;38.38
13456;BME280;6800;50.940;6.940;2022-08-19T04:14:11;100551.22;;;30.92;39.08
13456;BME280;6800;50.940;6.940;2022-08-19T04:18:17;100556.44;;;30.87;38.89
13456;BME280;6800;50.940;6.940;2022-08-19T04:22:17;100562.97;;;30.97;38.89
13456;BME280;6800;50.940;6.940;2022-08-19T04:31:17;100559.25;;;31.16;38.58
13456;BME280;6800;50.940;6.940;2022-08-19T04:35:17;100571.16;;;31.09;39.16
13456;BME280;6800;50.940;6.940;2022-08-19T04:39:24;100569.72;;;31.06;39.18
13456;BME280;6800;50.940;6.940;2022-08-19T04:43:45;100562.53;;;31.00;39.56
13456;BME280;6800;50.940;6.940;2022-08-19T04:47:49;100567.88;;;31.07;39.56
13456;BME280;6800;50.940;6.940;2022-08-19T04:51:50;100569.50;;;31.08;39.35
13456;BME280;6800;50.940;6.940;2022-08-19T04:55:52;100575.25;;;31.11;39.48
13456;BME280;6800;50.940;6.940;2022-08-19T04:59:56;100583.81;;;31.26;39.09
13456;BME280;6800;50.940;6.940;2022-08-19T05:03:58;100590.25;;;31.50;38.38
13456;BME280;6800;50.940;6.940;2022-08-19T05:07:58;100588.47;;;31.62;38.47
13456;BME280;6800;50.940;6.940;2022-08-19T05:11:59;100589.56;;;31.54;38.58
13456;BME280;6800;50.940;6.940;2022-08-19T05:16:00;100597.44;;;31.56;38.06
13456;BME280;6800;50.940;6.940;2022-08-19T05:20:01;100605.06;;;31.77;38.01
13456;BME280;6800;50.940;6.940;2022-08-19T05:24:20;100608.63;;;31.96;37.60
13456;BME280;6800;50.940;6.940;2022-08-19T05:28:21;100612.56;;;31.75;38.20
13456;BME280;6800;50.940;6.940;2022-08-19T05:32:21;100610.78;;;31.87;37.32
13456;BME280;6800;50.940;6.940;2022-08-19T05:36:24;100609.66;;;31.77;37.67
13456;BME280;6800;50.940;6.940;2022-08-19T05:40:26;100619.31;;;31.84;37.97
13456;BME280;6800;50.940;6.940;2022-08-19T05:44:29;100614.97;;;32.01;37.75
13456;BME280;6800;50.940;6.940;2022-08-19T05:48:33;100612.88;;;32.03;37.51
13456;BME280;6800;50.940;6.940;2022-08-19T05:52:33;100611.84;;;32.04;37.67
13456;BME280;6800;50.940;6.940;2022-08-19T05:56:37;100612.09;;;32.14;37.85
13456;BME280;6800;50.940;6.940;2022-08-19T06:00:38;100620.81;;;32.28;37.15
13456;BME280;6800;50.940;6.940;2022-08-19T06:04:40;100626.72;;;32.37;37.61
13456;BME280;6800;50.940;6.940;2022-08-19T06:08:43;100618.59;;;32.55;36.82
13456;BME280;6800;50.940;6.940;2022-08-19T06:12:45;100598.00;;;32.24;38.13
13456;BME280;6800;50.940;6.940;2022-08-19T06:16:45;100593.78;;;32.58;36.99
13456;BME280;6800;50.940;6.940;2022-08-19T06:20:45;100599.56;;;32.73;36.88
13456;BME280;6800;50.940;6.940;2022-08-19T06:24:46;100598.75;;;33.53;35.61
13456;BME280;6800;50.940;6.940;2022-08-19T06:28:47;100598.16;;;33.63;35.24
13456;BME280;6800;50.940;6.940;2022-08-19T06:32:48;100597.59;;;34.01;34.81
13456;BME280;6800;50.940;6.940;2022-08-19T06:36:50;100595.31;;;33.98;34.94
13456;BME280;6800;50.940;6.940;2022-08-19T06:40:51;100598.94;;;34.76;33.02
13456;BME280;6800;50.940;6.940;2022-08-19T06:44:59;100600.03;;;34.75;33.38
13456;BME280;6800;50.940;6.940;2022-08-19T06:49:02;100603.25;;;35.44;32.79
13456;BME280;6800;50.940;6.940;2022-08-19T06:53:03;100592.06;;;36.05;31.35
13456;BME280;6800;50.940;6.940;2022-08-19T06:57:06;100611.13;;;36.58;31.19
13456;BME280;6800;50.940;6.940;2022-08-19T07:01:07;100603.84;;;37.06;29.37
13456;BME280;6800;50.940;6.940;2022-08-19T07:05:08;100609.25;;;37.37;29.69
13456;BME280;6800;50.940;6.940;2022-08-19T07:09:10;100607.91;;;37.03;29.44
13456;BME280;6800;50.940;6.940;2022-08-19T07:13:14;100623.78;;;35.94;31.74
13456;BME280;6800;50.940;6.940;2022-08-19T07:17:15;100623.72;;;36.16;30.68
13456;BME280;6800;50.940;6.940;2022-08-19T07:21:24;100626.59;;;36.31;30.42
13456;BME280;6800;50.940;6.940;2022-08-19T07:25:27;100632.97;;;36.15;31.09
13456;BME280;6800;50.940;6.940;2022-08-19T07:29:31;100637.03;;;37.39;28.66
13456;BME280;6800;50.940;6.940;2022-08-19T07:33:34;100643.44;;;37.18;28.93
13456;BME280;6800;50.940;6.940;2022-08-19T07:37:37;100637.28;;;36.64;29.50
13456;BME280;6800;50.940;6.940;2022-08-19T07:41:38;100652.25;;;36.40;30.48
13456;BME280;6800;50.940;6.940;2022-08-19T07:45:39;100655.25;;;36.65;29.56
13456;BME280;6800;50.940;6.940;2022-08-19T07:49:39;100657.41;;;36.37;29.93
13456;BME280;6800;50.940;6.940;2022-08-19T07:53:41;100662.81;;;36.10;30.39
13456;BME280;6800;50.940;6.940;2022-08-19T07:57:41;100666.47;;;36.42;30.23
13456;BME280;6800;50.940;6.940;2022-08-19T08:01:42;100665.53;;;36.10;30.24
13456;BME280;6800;50.940;6.940;2022-08-19T08:05:43;100671.59;;;35.02;32.96
13456;BME280;6800;50.940;6.940;2022-08-19T08:10:05;100681.97;;;35.77;31.39
13456;BME280;6800;50.940;6.940;2022-08-19T08:14:08;100690.44;;;35.59;31.75
13456;BME280;6800;50.940;6.940;2022-08-19T08:18:10;100685.16;;;35.52;31.46
13456;BME280;6800;50.940;6.940;2022-08-19T08:22:14;100677.25;;;36.37;30.17
13456;BME280;6800;50.940;6.940;2022-08-19T08:26:33;100679.41;;;36.35;30.41
13456;BME280;6800;50.940;6.940;2022-08-19T08:30:34;100682.78;;;37.32;29.69
13456;BME280;6800;50.940;6.940;2022-08-19T08:34:38;100681.53;;;37.97;28.58
13456;BME280;6800;50.940;6.940;2022-08-19T08:38:38;100677.94;;;37.86;28.54
13456;BME280;6800;50.940;6.940;2022-08-19T08:42:45;100681.75;;;39.08;26.74
13456;BME280;6800;50.940;6.940;2022-08-19T08:46:58;100675.19;;;39.29;26.71
13456;BME280;6800;50.940;6.940;2022-08-19T08:51:04;100672.75;;;39.12;26.25
13456;BME280;6800;50.940;6.940;2022-08-19T08:55:18;100671.34;;;39.40;26.02
13456;BME280;6800;50.940;6.940;2022-08-19T08:59:23;100666.28;;;40.41;24.80
13456;BME280;6800;50.940;6.940;2022-08-19T09:03:27;100669.25;;;40.01;25.26
13456;BME280;6800;50.940;6.940;2022-08-19T09:16:01;100671.00;;;41.08;23.21
13456;BME280;6800;50.940;6.940;2022-08-19T09:20:23;100662.94;;;42.16;21.78
13456;BME280;6800;50.940;6.940;2022-08-19T09:24:23;100668.47;;;43.99;19.91
13456;BME280;6800;50.940;6.940;2022-08-19T09:28:24;100669.16;;;44.18;19.63
13456;BME280;6800;50.940;6.940;2022-08-19T09:32:24;100665.53;;;43.96;19.08
13456;BME280;6800;50.940;6.940;2022-08-19T09:36:27;100659.00;;;44.63;19.32
13456;BME280;6800;50.940;6.940;2022-08-19T09:40:30;100661.53;;;44.96;18.78
13456;BME280;6800;50.940;6.940;2022-08-19T09:44:31;100670.22;;;44.09;19.32
13456;BME280;6800;50.940;6.940;2022-08-19T09:48:35;100663.34;;;45.00;18.68
13456;BME280;6800;50.940;6.940;2022-08-19T09:52:35;100665.06;;;46.05;17.04
13456;BME280;6800;50.940;6.940;2022-08-19T09:56:37;100656.63;;;44.48;18.63
13456;BME280;6800;50.940;6.940;2022-08-19T10:00:37;100651.56;;;44.64;18.26
13456;BME280;6800;50.940;6.940;2022-08-19T10:04:38;100645.84;;;45.05;16.71
13456;BME280;6800;50.940;6.940;2022-08-19T10:08:57;100663.59;;;43.96;18.46
13456;BME280;6800;50.940;6.940;2022-08-19T10:12:57;100656.69;;;44.57;18.23
13456;BME280;6800;50.940;6.940;2022-08-19T10:16:59;100639.06;;;46.23;17.05
13456;BME280;6800;50.940;6.940;2022-08-19T10:21:16;100642.72;;;45.76;16.72
13456;BME280;6800;50.940;6.940;2022-08-19T10:25:16;100631.53;;;45.33;17.33
13456;BME280;6800;50.940;6.940;2022-08-19T10:29:17;100638.97;;;41.98;20.34
13456;BME280;6800;50.940;6.940;2022-08-19T10:33:17;100643.34;;;42.23;20.70
13456;BME280;6800;50.940;6.940;2022-08-19T10:37:18;100637.69;;;43.57;19.21
13456;BME280;6800;50.940;6.940;2022-08-19T10:41:23;100642.19;;;45.57;17.46
13456;BME280;6800;50.940;6.940;2022-08-19T10:45:25;100644.19;;;44.73;17.87
13456;BME280;6800;50.940;6.940;2022-08-19T10:49:26;100619.66;;;45.63;17.03
13456;BME280;6800;50.940;6.940;2022-08-19T10:53:26;100633.72;;;43.76;19.12
13456;BME280;6800;50.940;6.940;2022-08-19T10:57:30;100634.28;;;44.14;18.58
13456;BME280;6800;50.940;6.940;2022-08-19T11:01:32;100625.59;;;43.71;18.96
13456;BME280;6800;50.940;6.940;2022-08-19T11:05:34;100627.88;;;43.10;20.07
13456;BME280;6800;50.940;6.940;2022-08-19T11:09:41;100628.78;;;42.22;20.71
13456;BME280;6800;50.940;6.940;2022-08-19T11:13:41;100626.34;;;41.02;22.03
13456;BME280;6800;50.940;6.940;2022-08-19T11:22:02;100624.78;;;43.30;19.25
13456;BME280;6800;50.940;6.940;2022-08-19T11:26:03;100613.59;;;44.83;17.36
13456;BME280;6800;50.940;6.940;2022-08-19T11:30:06;100620.19;;;45.04;17.10
13456;BME280;6800;50.940;6.940;2022-08-19T11:34:10;100613.34;;;45.24;16.93
13456;BME280;6800;50.940;6.940;2022-08-19T11:38:21;100606.97;;;45.71;17.02
13456;BME280;6800;50.940;6.940;2022-08-19T11:42:21;100600.13;;;46.88;15.53
13456;BME280;6800;50.940;6.940;2022-08-19T11:46:41;100603.88;;;46.84;15.34
13456;BME280;6800;50.940;6.940;2022-08-19T11:50:45;100601.84;;;45.39;16.27
13456;BME280;6800;50.940;6.940;2022-08-19T11:54:45;100607.16;;;45.66;16.61
13456;BME280;6800;50.940;6.940;2022-08-19T11:58:46;100601.44;;;44.17;17.57
13456;BME280;6800;50.940;6.940;2022-08-19T12:02:46;100605.41;;;42.76;19.05
13456;BME280;6800;50.940;6.940;2022-08-19T12:06:46;100601.88;;;42.38;19.61
13456;BME280;6800;50.940;6.940;2022-08-19T12:10:47;100601.28;;;42.59;19.03
13456;BME280;6800;50.940;6.940;2022-08-19T12:14:47;100604.75;;;42.65;18.75
13456;BME280;6800;50.940;6.940;2022-08-19T12:18:50;100595.38;;;42.66;18.60
13456;BME280;6800;50.940;6.940;2022-08-19T12:22:52;100607.34;;;42.06;19.31
13456;BME280;6800;50.940;6.940;2022-08-19T12:26:52;100602.72;;;43.16;18.44
13456;BME280;6800;50.940;6.940;2022-08-19T12:30:56;100590.81;;;41.87;19.32
13456;BME280;6800;50.940;6.940;2022-08-19T12:34:58;100591.84;;;41.01;20.40
13456;BME280;6800;50.940;6.940;2022-08-19T12:38:59;100587.00;;;41.17;20.05
13456;BME280;6800;50.940;6.940;2022-08-19T12:42:59;100589.97;;;41.68;19.86
13456;BME280;6800;50.940;6.940;2022-08-19T12:47:00;100589.66;;;40.98;20.69
13456;BME280;6800;50.940;6.940;2022-08-19T12:51:06;100586.25;;;40.49;20.97
13456;BME280;6800;50.940;6.940;2022-08-19T12:55:08;100580.88;;;39.90;21.12
13456;BME280;6800;50.940;6.940;2022-08-19T12:59:08;100581.41;;;39.97;21.26
13456;BME280;6800;50.940;6.940;2022-08-19T13:03:08;100589.72;;;39.77;21.85
13456;BME280;6800;50.940;6.940;2022-08-19T13:07:09;100582.63;;;39.71;21.57
13456;BME280;6800;50.940;6.940;2022-08-19T13:11:16;100575.84;;;39.63;21.47
13456;BME280;6800;50.940;6.940;2022-08-19T13:15:19;100565.66;;;38.85;22.20
13456;BME280;6800;50.940;6.940;2022-08-19T13:19:22;100558.53;;;38.99;21.76
13456;BME280;6800;50.940;6.940;2022-08-19T13:23:23;100561.00;;;38.60;21.62
13456;BME280;6800;50.940;6.940;2022-08-19T13:27:23;100561.84;;;38.51;21.79
13456;BME280;6800;50.940;6.940;2022-08-19T13:31:26;100555.56;;;38.45;22.24
13456;BME280;6800;50.940;6.940;2022-08-19T13:35:50;100555.84;;;38.64;22.05
13456;BME280;6800;50.940;6.940;2022-08-19T13:39:51;100545.19;;;38.52;22.19
13456;BME280;6800;50.940;6.940;2022-08-19T13:43:52;100547.72;;;37.51;22.54
13456;BME280;6800;50.940;6.940;2022-08-19T13:47:55;100541.06;;;38.04;21.98
13456;BME280;6800;50.940;6.940;2022-08-19T13:51:57;100532.84;;;37.89;22.27
13456;BME280;6800;50.940;6.940;2022-08-19T13:55:57;100536.19;;;38.72;21.62
13456;BME280;6800;50.940;6.940;2022-08-19T13:59:58;100543.81;;;38.24;21.50
13456;BME280;6800;50.940;6.940;2022-08-19T14:03:58;100534.81;;;38.44;21.28
13456;BME280;6800;50.940;6.940;2022-08-19T14:07:59;100534.78;;;38.64;21.33
13456;BME280;6800;50.940;6.940;2022-08-19T14:11:59;100532.91;;;38.45;20.92
13456;BME280;6800;50.940;6.940;2022-08-19T14:16:00;100529.31;;;38.64;20.93
13456;BME280;6800;50.940;6.940;2022-08-19T14:20:04;100544.06;;;38.83;21.01
13456;BME280;6800;50.940;6.940;2022-08-19T14:24:08;100538.88;;;38.16;21.88
13456;BME280;6800;50.940;6.940;2022-08-19T14:28:09;100536.03;;;37.71;22.29
13456;BME280;6800;50.940;6.940;2022-08-19T14:32:10;100549.81;;;38.26;22.52
13456;BME280;6800;50.940;6.940;2022-08-19T14:36:10;100539.97;;;38.15;22.52
13456;BME280;6800;50.940;6.940;2022-08-19T14:40:14;100551.75;;;38.71;22.16
13456;BME280;6800;50.940;6.940;2022-08-19T14:44:15;100548.19;;;38.36;22.56
13456;BME280;6800;50.940;6.940;2022-08-19T14:48:15;100558.84;;;38.37;22.06
13456;BME280;6800;50.940;6.940;2022-08-19T14:52:16;100556.66;;;38.69;20.81
13456;BME280;6800;50.940;6.940;2022-08-19T14:56:21;100552.84;;;38.75;21.16
13456;BME280;6800;50.940;6.940;2022-08-19T15:00:23;100538.38;;;38.45;21.86
13456;BME280;6800;50.940;6.940;2022-08-19T15:04:23;100545.47;;;38.41;21.50
13456;BME280;6800;50.940;6.940;2022-08-19T15:08:23;100549.84;;;38.42;20.96
13456;BME280;6800;50.940;6.940;2022-08-19T15:12:25;100547.66;;;38.28;21.07
13456;BME280;6800;50.940;6.940;2022-08-19T15:16:26;100542.41;;;37.92;21.31
13456;BME280;6800;50.940;6.940;2022-08-19T15:20:27;100551.47;;;38.58;20.81
13456;BME280;6800;50.940;6.940;2022-08-19T15:24:27;100549.78;;;37.96;21.14
13456;BME280;6800;50.940;6.940;2022-08-19T15:28:27;100564.03;;;38.59;20.37
13456;BME280;6800;50.940;6.940;2022-08-19T15:32:29;100564.88;;;38.69;20.20
13456;BME280;6800;50.940;6.940;2022-08-19T15:36:29;100561.84;;;38.56;20.47
13456;BME280;6800;50.940;6.940;2022-08-19T15:40:31;100574.41;;;38.82;20.41
13456;BME280;6800;50.940;6.940;2022-08-19T15:44:31;100572.75;;;38.61;20.90
13456;BME280;6800;50.940;6.940;2022-08-19T15:48:33;100570.34;;;38.74;21.17
13456;BME280;6800;50.940;6.940;2022-08-19T15:52:33;100581.22;;;38.94;21.10
13456;BME280;6800;50.940;6.940;2022-08-19T15:56:34;100577.69;;;38.74;21.69
13456;BME280;6800;50.940;6.940;2022-08-19T16:00:53;100571.38;;;38.58;22.07
13456;BME280;6800;50.940;6.940;2022-08-19T16:05:14;100577.97;;;38.77;21.88
13456;BME280;6800;50.940;6.940;2022-08-19T16:09:34;100578.22;;;38.61;21.88
13456;BME280;6800;50.940;6.940;2022-08-19T16:13:35;100578.50;;;38.34;22.98
13456;BME280;6800;50.940;6.940;2022-08-19T16:17:36;100586.41;;;38.46;22.79
13456;BME280;6800;50.940;6.940;2022-08-19T16:21:36;100589.13;;;38.31;22.92
13456;BME280;6800;50.940;6.940;2022-08-19T16:25:38;100590.25;;;38.55;22.82
13456;BME280;6800;50.940;6.940;2022-08-19T16:29:38;100594.31;;;38.37;23.25
13456;BME280;6800;50.940;6.940;2022-08-19T16:33:39;100589.38;;;38.09;23.73
13456;BME280;6800;50.940;6.940;2022-08-19T16:37:40;100602.94;;;37.89;23.56
13456;BME280;6800;50.940;6.940;2022-08-19T16:41:42;100593.97;;;38.13;23.65
13456;BME280;6800;50.940;6.940;2022-08-19T16:45:44;100595.13;;;38.33;23.26
13456;BME280;6800;50.940;6.940;2022-08-19T16:49:44;100584.97;;;37.98;23.52
13456;BME280;6800;50.940;6.940;2022-08-19T16:53:45;100582.53;;;37.39;24.63
13456;BME280;6800;50.940;6.940;2022-08-19T16:57:45;100600.63;;;37.14;24.75
13456;BME280;6800;50.940;6.940;2022-08-19T17:01:45;100595.72;;;37.16;25.90
13456;BME280;6800;50.940;6.940;2022-08-19T17:05:47;100597.63;;;37.57;25.12
13456;BME280;6800;50.940;6.940;2022-08-19T17:09:48;100597.56;;;37.00;26.10
13456;BME280;6800;50.940;6.940;2022-08-19T17:13:49;100596.28;;;37.65;24.94
13456;BME280;6800;50.940;6.940;2022-08-19T17:17:50;100592.16;;;37.57;25.57
13456;BME280;6800;50.940;6.940;2022-08-19T17:21:51;100591.28;;;37.41;25.79
13456;BME280;6800;50.940;6.940;2022-08-19T17:25:52;100593.59;;;37.18;26.16
13456;BME280;6800;50.940;6.940;2022-08-19T17:29:52;100599.97;;;36.97;26.73
13456;BME280;6800;50.940;6.940;2022-08-19T17:33:52;100594.84;;;36.68;27.67
13456;BME280;6800;50.940;6.940;2022-08-19T17:37:53;100601.63;;;36.98;27.92
13456;BME280;6800;50.940;6.940;2022-08-19T17:55:32;100597.13;;;36.82;28.85
13456;BME280;6800;50.940;6.940;2022-08-19T18:07:55;100601.13;;;36.69;28.94
13456;BME280;6800;50.940;6.940;2022-08-19T18:11:57;100596.47;;;36.64;29.06
13456;BME280;6800;50.940;6.940;2022-08-19T18:15:58;100598.66;;;36.41;28.94
13456;BME280;6800;50.940;6.940;2022-08-19T18:20:00;100608.13;;;36.60;28.89
13456;BME280;6800;50.940;6.940;2022-08-19T18:24:00;100595.41;;;35.90;29.62
13456;BME280;6800;50.940;6.940;2022-08-19T18:28:06;100602.53;;;36.18;29.10
13456;BME280;6800;50.940;6.940;2022-08-19T18:32:06;100594.16;;;36.51;29.36
13456;BME280;6800;50.940;6.940;2022-08-19T18:36:13;100604.06;;;36.36;29.34
13456;BME280;6800;50.940;6.940;2022-08-19T18:40:17;100608.28;;;36.22;29.23
13456;BME280;6800;50.940;6.940;2022-08-19T18:44:37;100607.66;;;36.15;29.65
13456;BME280;6800;50.940;6.940;2022-08-19T18:48:56;100603.81;;;35.67;30.57
13456;BME280;6800;50.940;6.940;2022-08-19T18:53:06;100615.84;;;35.50;30.52
13456;BME280;6800;50.940;6.940;2022-08-19T21:16:55;100745.81;;;33.31;39.36
13456;BME280;6800;50.940;6.940;2022-08-19T21:20:56;100745.16;;;33.58;39.40
13456;BME280;6800;50.940;6.940;2022-08-19T21:24:56;100741.38;;;33.71;38.76
13456;BME280;6800;50.940;6.940;2022-08-19T21:28:57;100745.16;;;33.70;38.64
13456;BME280;6800;50.940;6.940;2022-08-19T21:32:59;100736.91;;;33.53;39.16
13456;BME280;6800;50.940;6.940;2022-08-19T21:37:01;100742.00;;;33.61;38.86
13456;BME280;6800;50.940;6.940;2022-08-19T21:41:03;100747.41;;;33.61;38.85
13456;BME280;6800;50.940;6.940;2022-08-19T21:45:04;100749.97;;;33.68;38.82
13456;BME280;6800;50.940;6.940;2022-08-19T21:49:05;100750.31;;;33.95;38.19
13456;BME280;6800;50.940;6.940;2022-08-19T21:53:05;100740.81;;;33.80;38.07
13456;BME280;6800;50.940;6.940;2022-08-19T21:57:06;100738.19;;;33.86;38.12
13456;BME280;6800;50.940;6.940;2022-08-19T22:01:06;100745.72;;;33.83;38.35
13456;BME280;6800;50.940;6.940;2022-08-19T22:05:08;100755.41;;;33.79;38.36
13456;BME280;6800;50.940;6.940;2022-08-19T22:09:08;100751.47;;;33.87;38.78
13456;BME280;6800;50.940;6.940;2022-08-19T22:13:08;100745.97;;;33.70;38.74
13456;BME280;6800;50.940;6.940;2022-08-19T22:17:09;100746.91;;;33.76;38.25
13456;BME280;6800;50.940;6.940;2022-08-19T22:21:10;100748.66;;;33.94;38.25
13456;BME280;6800;50.940;6.940;2022-08-19T22:25:15;100746.22;;;34.04;38.20
13456;BME280;6800;50.940;6.940;2022-08-19T22:29:16;100746.53;;;33.96;37.98
13456;BME280;6800;50.940;6.940;2022-08-19T22:33:18;100749.84;;;33.86;38.56
13456;BME280;6800;50.940;6.940;2022-08-19T22:37:18;100745.72;;;34.07;38.27
13456;BME280;6800;50.940;6.940;2022-08-19T22:41:19;100753.28;;;33.93;38.26
13456;BME280;6800;50.940;6.940;2022-08-19T22:45:19;100757.59;;;33.94;38.12
13456;BME280;6800;50.940;6.940;2022-08-19T22:49:19;100761.50;;;34.10;37.77
13456;BME280;6800;50.940;6.940;2022-08-19T22:53:20;100768.38;;;34.01;38.34
13456;BME280;6800;50.940;6.940;2022-08-19T22:57:21;100756.81;;;33.70;38.71
13456;BME280;6800;50.940;6.940;2022-08-19T23:01:22;100762.31;;;33.99;38.23
13456;BME280;6800;50.940;6.940;2022-08-19T23:05:26;100763.38;;;33.98;38.37
13456;BME280;6800;50.940;6.940;2022-08-19T23:09:27;100756.69;;;34.12;38.31
13456;BME280;6800;50.940;6.940;2022-08-19T23:13:27;100763.41;;;33.86;38.54
13456;BME280;6800;50.940;6.940;2022-08-19T23:17:28;100759.84;;;33.86;38.74
13456;BME280;6800;50.940;6.940;2022-08-19T23:21:28;100759.97;;;33.79;39.13
13456;BME280;6800;50.940;6.940;2022-08-19T23:25:30;100754.81;;;33.77;38.94
13456;BME280;6800;50.940;6.940;2022-08-19T23:29:31;100764.22;;;33.75;39.03
13456;BME280;6800;50.940;6.940;2022-08-19T23:33:49;100755.81;;;33.30;39.91
13456;BME280;6800;50.940;6.940;2022-08-19T23:37:50;100768.69;;;33.58;39.29
13456;BME280;6800;50.940;6.940;2022-08-19T23:41:52;100757.84;;;33.46;39.96
13456;BME280;6800;50.940;6.940;2022-08-19T23:45:52;100761.28;;;33.65;39.36
13456;BME280;6800;50.940;6.940;2022-08-19T23:49:56;100754.38;;;33.28;39.86
13456;BME280;6800;50.940;6.940;2022-08-19T23:53:57;100763.66;;;33.61;39.35
13456;BME280;6800;50.940;6.940;2022-08-19T23:57:58;100752.44;;;33.58;38.98
